Time;durP1;ratioP1;P1;durP2;ratioP2;P2;SDS_P1;SDS_P2;PMS_P1;PMS_P2;Temp;Humidity;BMP_temperature;BMP_pressure;BME280_temperature;BME280_humidity;BME280_pressure;Samples;Min_cycle;Max_cycle;Signal;HPM_P1;HPM_P2
2024/02/12 00:02:19;;;;;;;0.90;0.60;;;8.20;85.70;;;;;;4978801;28;20041;-63
2024/02/12 00:04:48;;;;;;;1.30;0.77;;;8.30;85.70;;;;;;4979412;28;20034;-63
2024/02/12 00:07:16;;;;;;;0.98;0.63;;;8.30;85.70;;;;;;4978382;28;20062;-63
2024/02/12 00:09:42;;;;;;;1.25;0.77;;;8.30;85.70;;;;;;4980960;28;20042;-61
2024/02/12 00:12:08;;;;;;;0.68;0.60;;;8.30;85.60;;;;;;4979546;28;20046;-62
2024/02/12 00:14:34;;;;;;;0.60;0.50;;;8.30;86.40;;;;;;4980190;28;20042;-63
2024/02/12 00:17:05;;;;;;;0.65;0.57;;;8.30;85.50;;;;;;4981125;28;20042;-64
2024/02/12 00:19:37;;;;;;;0.60;0.50;;;8.30;85.50;;;;;;4978376;28;20101;-62
2024/02/12 00:22:03;;;;;;;0.80;0.60;;;8.30;85.50;;;;;;4973866;28;20518;-62
2024/02/12 00:24:30;;;;;;;0.60;0.60;;;8.20;85.50;;;;;;4980574;28;20042;-64
2024/02/12 00:27:00;;;;;;;0.88;0.70;;;8.20;85.70;;;;;;4978753;28;20124;-61
2024/02/12 00:29:27;;;;;;;0.82;0.60;;;8.20;85.70;;;;;;4981138;28;20034;-63
2024/02/12 00:31:53;;;;;;;1.15;0.65;;;8.20;86.70;;;;;;4981716;28;20039;-62
2024/02/12 00:34:20;;;;;;;0.70;0.47;;;8.20;85.90;;;;;;4983277;28;20035;-64
2024/02/12 00:36:46;;;;;;;1.45;0.68;;;8.20;86.00;;;;;;4977291;28;20303;-64
2024/02/12 00:39:12;;;;;;;0.80;0.60;;;8.20;86.00;;;;;;4977742;28;20122;-62
2024/02/12 00:41:38;;;;;;;1.10;0.77;;;8.20;86.00;;;;;;4977878;28;20042;-63
2024/02/12 00:44:04;;;;;;;0.52;0.50;;;8.20;86.00;;;;;;4979094;28;20550;-63
2024/02/12 00:46:30;;;;;;;0.50;0.47;;;8.30;86.10;;;;;;4981249;28;20125;-62
2024/02/12 00:48:56;;;;;;;0.47;0.47;;;8.30;86.00;;;;;;4976164;28;20043;-62
2024/02/12 00:51:22;;;;;;;1.00;0.70;;;8.30;86.00;;;;;;4978284;28;20069;-64
2024/02/12 00:53:48;;;;;;;1.10;0.68;;;8.30;85.90;;;;;;4980524;28;20035;-63
2024/02/12 00:56:16;;;;;;;1.40;0.60;;;8.30;85.90;;;;;;4977060;28;20034;-63
2024/02/12 00:58:45;;;;;;;0.90;0.52;;;8.30;85.90;;;;;;4977670;28;20030;-63
2024/02/12 01:01:11;;;;;;;1.05;0.73;;;8.30;85.90;;;;;;4980663;28;20042;-61
2024/02/12 01:03:37;;;;;;;0.90;0.70;;;8.30;86.00;;;;;;4985934;28;20039;-63
2024/02/12 01:06:02;;;;;;;1.85;0.70;;;8.30;85.90;;;;;;4985321;28;20038;-62
2024/02/12 01:08:28;;;;;;;0.70;0.65;;;8.30;86.00;;;;;;4983396;28;20035;-63
2024/02/12 01:10:54;;;;;;;1.45;0.70;;;8.30;86.00;;;;;;4984298;28;20038;-62
2024/02/12 01:13:19;;;;;;;0.60;0.60;;;8.30;86.00;;;;;;4982351;28;20043;-62
2024/02/12 01:15:49;;;;;;;2.13;0.75;;;8.30;86.10;;;;;;4981919;28;20042;-64
2024/02/12 01:18:15;;;;;;;1.13;0.85;;;8.30;86.10;;;;;;4985417;28;20027;-64
2024/02/12 01:20:41;;;;;;;0.93;0.73;;;8.30;86.20;;;;;;4980577;28;20415;-64
2024/02/12 01:23:07;;;;;;;0.82;0.60;;;8.30;86.10;;;;;;4980261;28;20038;-63
2024/02/12 01:25:32;;;;;;;0.98;0.50;;;8.30;86.20;;;;;;4987399;28;20049;-63
2024/02/12 01:28:00;;;;;;;1.50;0.57;;;8.30;86.20;;;;;;4989818;28;20514;-63
2024/02/12 01:30:26;;;;;;;0.93;0.47;;;8.30;86.90;;;;;;4981094;28;20418;-63
2024/02/12 01:32:53;;;;;;;1.00;0.65;;;8.30;86.20;;;;;;4983906;28;20086;-63
2024/02/12 01:35:20;;;;;;;0.52;0.52;;;8.30;86.20;;;;;;4978148;28;20037;-64
2024/02/12 01:37:46;;;;;;;1.95;0.70;;;8.30;86.20;;;;;;4987174;28;20521;-62
2024/02/12 01:40:13;;;;;;;0.80;0.60;;;8.30;86.20;;;;;;4981583;28;20122;-63
2024/02/12 01:42:39;;;;;;;1.30;0.50;;;8.30;86.10;;;;;;4982057;28;20541;-62
2024/02/12 01:45:16;;;;;;;1.35;0.45;;;8.30;86.10;;;;;;4985710;28;20035;-62
2024/02/12 01:47:43;;;;;;;0.63;0.40;;;8.30;86.10;;;;;;4982813;28;20458;-64
2024/02/12 01:50:13;;;;;;;1.02;0.55;;;8.30;86.00;;;;;;4977802;28;20034;-61
2024/02/12 01:52:40;;;;;;;0.60;0.50;;;8.40;86.00;;;;;;4980387;28;20027;-62
2024/02/12 01:55:07;;;;;;;0.93;0.40;;;8.40;86.00;;;;;;4982138;28;20118;-62
2024/02/12 01:57:34;;;;;;;0.63;0.50;;;8.30;85.90;;;;;;4978538;28;20031;-62
2024/02/12 02:00:00;;;;;;;0.47;0.40;;;8.30;86.00;;;;;;4976666;28;20026;-63
2024/02/12 02:02:26;;;;;;;1.65;0.60;;;8.40;86.00;;;;;;4984569;28;20035;-63
2024/02/12 02:04:53;;;;;;;0.80;0.40;;;8.40;86.00;;;;;;4980818;28;20042;-62
2024/02/12 02:07:19;;;;;;;0.38;0.35;;;8.40;86.00;;;;;;4996238;28;20035;-63
2024/02/12 02:09:50;;;;;;;1.33;0.30;;;8.40;86.00;;;;;;4980627;28;20128;-62
2024/02/12 02:12:16;;;;;;;0.68;0.50;;;8.40;86.00;;;;;;4977966;28;20357;-63
2024/02/12 02:14:44;;;;;;;0.40;0.40;;;8.40;86.10;;;;;;4983579;28;20046;-63
2024/02/12 02:17:10;;;;;;;1.27;0.43;;;8.40;86.00;;;;;;4978833;28;20030;-61
2024/02/12 02:19:38;;;;;;;0.82;0.25;;;8.40;85.90;;;;;;4982838;28;20440;-62
2024/02/12 02:22:04;;;;;;;0.40;0.40;;;8.40;85.90;;;;;;4982032;28;20042;-63
2024/02/12 02:24:30;;;;;;;0.40;0.40;;;8.40;85.90;;;;;;4982146;28;20380;-62
2024/02/12 02:26:55;;;;;;;0.75;0.43;;;8.40;85.90;;;;;;4981934;28;20049;-63
2024/02/12 02:29:21;;;;;;;0.47;0.43;;;8.40;85.90;;;;;;4975756;28;20038;-62
2024/02/12 02:31:47;;;;;;;0.50;0.30;;;8.40;85.80;;;;;;4982161;28;20042;-63
2024/02/12 02:34:13;;;;;;;0.63;0.30;;;8.40;85.80;;;;;;4983391;28;20086;-61
2024/02/12 02:36:39;;;;;;;2.13;0.40;;;8.30;85.70;;;;;;4982912;28;20042;-62
2024/02/12 02:39:04;;;;;;;0.30;0.30;;;8.30;85.80;;;;;;4978182;28;20042;-61
2024/02/12 02:41:30;;;;;;;0.50;0.30;;;8.30;85.80;;;;;;4982608;28;20038;-62
2024/02/12 02:43:56;;;;;;;0.80;0.30;;;8.30;85.80;;;;;;4984357;28;20038;-62
2024/02/12 02:46:26;;;;;;;0.20;0.20;;;8.30;85.90;;;;;;4979394;28;20549;-63
2024/02/12 02:48:52;;;;;;;0.40;0.30;;;8.30;86.00;;;;;;4981285;28;20058;-62
2024/02/12 02:51:27;;;;;;;0.30;0.30;;;8.30;86.00;;;;;;4981804;28;20046;-61
2024/02/12 02:53:54;;;;;;;0.30;0.30;;;8.20;85.90;;;;;;4983968;28;20071;-63
2024/02/12 02:56:21;;;;;;;0.43;0.28;;;8.30;86.00;;;;;;4980364;28;20062;-63
2024/02/12 02:58:50;;;;;;;0.30;0.30;;;8.20;86.00;;;;;;4976038;28;20042;-62
2024/02/12 03:01:19;;;;;;;0.80;0.50;;;8.20;86.00;;;;;;4982445;28;20442;-63
2024/02/12 03:03:50;;;;;;;0.60;0.40;;;8.20;86.20;;;;;;4980242;28;20168;-63
2024/02/12 03:06:17;;;;;;;0.73;0.32;;;8.20;86.20;;;;;;4976901;28;20047;-63
2024/02/12 03:08:42;;;;;;;0.50;0.50;;;8.20;86.20;;;;;;4982220;28;20042;-63
2024/02/12 03:11:08;;;;;;;1.38;0.30;;;8.20;86.20;;;;;;4986233;28;21020;-64
2024/02/12 03:13:36;;;;;;;0.80;0.40;;;8.20;86.30;;;;;;4980768;28;20606;-63
2024/02/12 03:16:02;;;;;;;0.30;0.30;;;8.30;86.40;;;;;;4977365;28;20076;-62
2024/02/12 03:18:27;;;;;;;0.40;0.40;;;8.30;86.40;;;;;;4979663;28;20129;-63
2024/02/12 03:20:53;;;;;;;0.40;0.40;;;8.30;86.40;;;;;;4984912;28;20042;-63
2024/02/12 03:23:18;;;;;;;0.70;0.70;;;8.30;86.30;;;;;;4979990;28;20042;-63
2024/02/12 03:25:44;;;;;;;1.92;0.57;;;8.30;86.20;;;;;;4979769;28;20038;-63
2024/02/12 03:28:10;;;;;;;2.67;0.60;;;8.30;86.20;;;;;;4977125;28;20031;-59
2024/02/12 03:30:35;;;;;;;0.57;0.47;;;8.30;86.20;;;;;;4975246;28;20047;-63
2024/02/12 03:33:02;;;;;;;0.50;0.47;;;8.30;86.30;;;;;;4980227;28;20966;-63
2024/02/12 03:35:29;;;;;;;0.38;0.35;;;8.30;86.30;;;;;;4980039;28;20026;-64
2024/02/12 03:37:55;;;;;;;0.80;0.45;;;8.30;86.40;;;;;;4984112;28;20616;-63
2024/02/12 03:40:26;;;;;;;0.40;0.40;;;8.40;86.40;;;;;;4981827;28;20334;-62
2024/02/12 03:42:52;;;;;;;0.30;0.30;;;8.30;86.40;;;;;;4978586;28;20553;-63
2024/02/12 03:45:19;;;;;;;0.30;0.30;;;8.30;86.40;;;;;;4983452;28;20038;-61
2024/02/12 03:47:47;;;;;;;0.75;0.50;;;8.30;86.30;;;;;;4982819;28;20046;-62
2024/02/12 04:01:20;;;;;;;0.30;0.30;;;8.30;86.30;;;;;;4982321;28;20061;-62
2024/02/12 04:03:49;;;;;;;1.20;0.40;;;8.30;86.40;;;;;;4976830;28;20286;-63
2024/02/12 04:06:15;;;;;;;0.90;0.30;;;8.30;86.50;;;;;;4983203;28;20483;-63
2024/02/12 04:08:42;;;;;;;0.57;0.40;;;8.30;86.60;;;;;;4981704;28;20125;-61
2024/02/12 04:11:11;;;;;;;0.40;0.20;;;8.30;86.60;;;;;;4984953;28;20169;-61
2024/02/12 04:13:37;;;;;;;0.30;0.20;;;8.30;86.70;;;;;;4977988;28;20038;-61
2024/02/12 04:16:06;;;;;;;1.00;0.40;;;8.30;86.70;;;;;;4977242;28;20090;-62
2024/02/12 04:18:32;;;;;;;0.82;0.30;;;8.30;86.80;;;;;;4983981;28;20054;-62
2024/02/12 04:20:59;;;;;;;0.40;0.40;;;8.30;86.80;;;;;;4981293;28;20092;-62
2024/02/12 04:23:25;;;;;;;1.65;0.50;;;8.30;86.80;;;;;;4984553;28;20395;-62
2024/02/12 04:25:51;;;;;;;1.17;0.57;;;8.30;86.90;;;;;;4980957;28;20142;-63
2024/02/12 04:28:18;;;;;;;0.60;0.50;;;8.30;86.80;;;;;;4982979;28;20150;-61
2024/02/12 04:30:44;;;;;;;0.63;0.50;;;8.30;86.90;;;;;;4978813;28;20050;-62
2024/02/12 04:33:11;;;;;;;0.55;0.40;;;8.30;86.90;;;;;;4978852;28;20034;-63
2024/02/12 04:35:37;;;;;;;0.93;0.50;;;8.30;86.90;;;;;;4980131;28;20033;-61
2024/02/12 04:38:03;;;;;;;1.10;0.70;;;8.30;86.80;;;;;;4983466;28;20030;-63
2024/02/12 04:40:29;;;;;;;1.00;0.60;;;8.30;86.70;;;;;;4980335;28;20409;-63
2024/02/12 04:42:57;;;;;;;1.00;0.60;;;8.30;86.70;;;;;;4981220;28;21666;-61
2024/02/12 04:45:24;;;;;;;1.10;0.57;;;8.30;86.70;;;;;;4979000;28;20038;-62
2024/02/12 04:47:50;;;;;;;1.45;0.70;;;8.30;86.70;;;;;;4978182;28;20030;-63
2024/02/12 04:50:16;;;;;;;1.35;0.77;;;8.30;86.80;;;;;;4975452;28;20031;-62
2024/02/12 04:52:41;;;;;;;3.20;0.93;;;8.30;86.90;;;;;;4977888;28;20041;-62
2024/02/12 04:55:10;;;;;;;1.10;0.82;;;8.30;86.90;;;;;;4980103;28;20141;-62
2024/02/12 04:57:38;;;;;;;1.10;0.70;;;8.30;86.90;;;;;;4978743;28;20143;-62
2024/02/12 05:00:05;;;;;;;1.10;0.90;;;8.20;86.90;;;;;;4978148;28;20120;-62
2024/02/12 05:02:33;;;;;;;2.70;0.65;;;8.30;86.90;;;;;;4976212;28;20031;-61
2024/02/12 05:04:59;;;;;;;0.50;0.50;;;8.30;87.00;;;;;;4977933;28;20038;-62
2024/02/12 05:07:27;;;;;;;0.98;0.50;;;8.30;87.00;;;;;;4976072;28;20457;-62
2024/02/12 05:09:53;;;;;;;1.95;0.60;;;8.30;87.00;;;;;;4981254;28;20042;-62
2024/02/12 05:12:18;;;;;;;1.17;0.50;;;8.30;86.90;;;;;;4980104;28;20043;-64
2024/02/12 05:14:44;;;;;;;2.15;0.60;;;8.30;86.90;;;;;;4979811;28;20031;-63
2024/02/12 05:17:11;;;;;;;1.02;0.80;;;8.30;86.90;;;;;;4980832;28;20494;-62
2024/02/12 05:22:34;;;;;;;2.20;1.10;;;8.30;86.90;;;;;;4981140;28;20166;-62
2024/02/12 05:25:01;;;;;;;0.85;0.85;;;8.20;86.90;;;;;;4978425;28;20042;-63
2024/02/12 05:27:28;;;;;;;1.67;0.90;;;8.30;86.90;;;;;;4980349;28;20035;-61
2024/02/12 05:29:55;;;;;;;1.65;1.02;;;8.30;87.10;;;;;;4977960;28;20026;-61
2024/02/12 05:32:22;;;;;;;1.20;0.70;;;8.20;87.00;;;;;;4977718;28;20050;-63
2024/02/12 05:34:48;;;;;;;1.25;1.00;;;8.20;87.10;;;;;;4977761;28;20039;-62
2024/02/12 05:37:14;;;;;;;0.93;0.82;;;8.20;87.10;;;;;;4978195;28;20030;-62
2024/02/12 05:39:40;;;;;;;1.20;0.75;;;8.20;87.10;;;;;;4979498;28;20478;-63
2024/02/12 05:42:06;;;;;;;1.50;0.80;;;8.20;87.10;;;;;;4982124;28;20057;-61
2024/02/12 05:44:35;;;;;;;1.55;0.80;;;8.20;87.30;;;;;;4980850;28;20509;-61
2024/02/12 05:47:02;;;;;;;0.93;0.73;;;8.20;87.30;;;;;;4982032;28;20046;-63
2024/02/12 05:49:28;;;;;;;1.05;0.93;;;8.20;87.40;;;;;;4985008;28;20062;-62
2024/02/12 05:51:55;;;;;;;1.35;0.90;;;8.20;87.40;;;;;;4982414;28;20137;-60
2024/02/12 05:54:20;;;;;;;1.98;1.02;;;8.20;87.40;;;;;;4983643;28;20522;-61
2024/02/12 05:56:47;;;;;;;1.05;0.68;;;8.20;87.40;;;;;;4986420;28;20041;-61
2024/02/12 05:59:12;;;;;;;1.48;0.80;;;8.20;87.50;;;;;;4981336;28;20034;-58
2024/02/12 06:01:38;;;;;;;1.10;0.80;;;8.20;87.50;;;;;;4980695;28;20042;-62
2024/02/12 06:04:04;;;;;;;1.35;0.80;;;8.20;87.40;;;;;;4988575;28;20069;-62
2024/02/12 06:06:30;;;;;;;1.50;0.90;;;8.20;87.30;;;;;;4983626;28;20079;-61
2024/02/12 06:08:55;;;;;;;1.45;0.90;;;8.20;87.30;;;;;;4982884;28;20049;-61
2024/02/12 06:11:21;;;;;;;1.70;0.90;;;8.20;87.30;;;;;;4977179;28;20035;-62
2024/02/12 06:13:47;;;;;;;1.98;0.80;;;8.20;87.30;;;;;;4979334;28;20042;-60
2024/02/12 06:16:13;;;;;;;2.40;0.90;;;8.20;87.30;;;;;;4983048;28;20035;-62
2024/02/12 06:18:39;;;;;;;1.70;1.10;;;8.20;87.30;;;;;;4981233;28;20043;-62
2024/02/12 06:21:05;;;;;;;1.33;0.82;;;8.20;87.40;;;;;;4980638;28;20034;-63
2024/02/12 06:23:31;;;;;;;1.65;0.80;;;8.20;87.40;;;;;;4979614;28;20621;-62
2024/02/12 06:25:58;;;;;;;1.30;0.80;;;8.20;87.50;;;;;;4995040;28;20033;-63
2024/02/12 06:28:23;;;;;;;2.35;0.88;;;8.20;87.50;;;;;;4977286;28;20030;-64
2024/02/12 06:30:49;;;;;;;2.25;1.00;;;8.20;87.50;;;;;;4980914;28;20126;-59
2024/02/12 06:33:15;;;;;;;2.53;1.33;;;8.30;87.60;;;;;;4984806;28;20070;-61
2024/02/12 06:35:41;;;;;;;1.48;0.90;;;8.30;87.60;;;;;;4980095;28;20034;-62
2024/02/12 06:38:06;;;;;;;2.08;0.93;;;8.30;87.60;;;;;;4978058;28;20149;-62
2024/02/12 06:40:32;;;;;;;1.45;0.90;;;8.20;87.50;;;;;;4976736;28;20026;-61
2024/02/12 06:43:04;;;;;;;1.00;0.90;;;8.30;87.60;;;;;;4982836;28;20521;-62
2024/02/12 06:45:31;;;;;;;0.98;0.77;;;8.30;87.60;;;;;;4977751;28;20281;-62
2024/02/12 06:47:56;;;;;;;1.13;0.70;;;8.30;87.60;;;;;;4978794;28;20407;-62
2024/02/12 06:50:23;;;;;;;1.80;0.82;;;8.30;87.60;;;;;;4983585;28;20041;-60
2024/02/12 06:52:49;;;;;;;0.90;0.80;;;8.30;87.60;;;;;;4980718;28;20570;-62
2024/02/12 06:55:15;;;;;;;2.03;1.17;;;8.30;87.60;;;;;;4977302;28;20142;-62
2024/02/12 06:57:41;;;;;;;2.15;1.00;;;8.30;87.60;;;;;;4977859;28;20498;-61
2024/02/12 07:00:07;;;;;;;2.05;0.88;;;8.30;87.60;;;;;;4977735;28;20062;-60
2024/02/12 07:02:35;;;;;;;1.25;0.82;;;8.30;87.60;;;;;;4980012;28;20026;-62
2024/02/12 07:05:05;;;;;;;1.00;0.90;;;8.30;87.60;;;;;;4979406;28;20121;-62
2024/02/12 07:07:30;;;;;;;0.70;0.70;;;8.30;87.50;;;;;;4984704;28;20402;-62
2024/02/12 07:10:00;;;;;;;1.38;0.93;;;8.30;87.40;;;;;;4988038;28;20031;-62
2024/02/12 07:12:26;;;;;;;3.08;0.80;;;8.30;87.50;;;;;;4976433;28;20414;-63
2024/02/12 07:14:52;;;;;;;1.10;1.00;;;8.30;87.50;;;;;;4977596;28;20584;-62
2024/02/12 07:17:21;;;;;;;3.30;1.48;;;8.30;87.60;;;;;;4980749;28;20039;-63
2024/02/12 07:19:49;;;;;;;2.58;1.80;;;8.30;87.60;;;;;;4976688;28;20054;-62
2024/02/12 07:22:15;;;;;;;2.55;2.05;;;8.30;87.60;;;;;;4982104;28;20090;-60
2024/02/12 07:24:48;;;;;;;2.00;1.67;;;8.30;87.60;;;;;;4988032;28;20110;-62
2024/02/12 07:27:13;;;;;;;1.55;1.38;;;8.30;87.60;;;;;;4976842;28;20038;-61
2024/02/12 07:29:39;;;;;;;1.45;1.10;;;8.30;87.60;;;;;;4977112;28;20031;-61
2024/02/12 07:32:05;;;;;;;2.67;1.20;;;8.30;87.50;;;;;;4988624;28;20054;-60
2024/02/12 07:34:31;;;;;;;1.80;1.30;;;8.30;87.50;;;;;;4983406;28;20065;-60
2024/02/12 07:36:57;;;;;;;1.98;1.30;;;8.30;87.50;;;;;;4990614;28;20036;-61
2024/02/12 07:39:23;;;;;;;1.58;1.15;;;8.30;87.40;;;;;;4976193;28;20035;-62
2024/02/12 07:41:48;;;;;;;1.95;1.33;;;8.30;87.10;;;;;;4990723;28;20459;-63
2024/02/12 07:44:14;;;;;;;2.50;1.10;;;8.30;87.10;;;;;;4976703;28;20054;-60
2024/02/12 07:46:40;;;;;;;2.10;1.33;;;8.30;87.10;;;;;;4976360;28;20034;-61
2024/02/12 07:49:06;;;;;;;1.83;1.05;;;8.30;87.10;;;;;;4980443;28;20474;-62
2024/02/12 07:51:32;;;;;;;1.30;1.20;;;8.30;87.20;;;;;;4975457;28;20094;-61
2024/02/12 07:53:58;;;;;;;2.28;1.20;;;8.30;87.30;;;;;;4978869;28;20046;-61
2024/02/12 07:56:23;;;;;;;1.42;1.10;;;8.30;87.40;;;;;;4975647;28;20104;-61
2024/02/12 07:58:50;;;;;;;2.67;1.05;;;8.40;87.40;;;;;;4985077;28;20046;-61
2024/02/12 08:01:16;;;;;;;1.55;1.10;;;8.40;87.40;;;;;;4980178;28;20046;-60
2024/02/12 08:03:42;;;;;;;1.88;1.10;;;8.40;88.30;;;;;;4984381;28;20089;-62
2024/02/12 08:06:12;;;;;;;1.20;1.10;;;8.40;87.40;;;;;;4978018;28;20042;-61
2024/02/12 08:08:37;;;;;;;2.03;1.15;;;8.50;87.40;;;;;;4977685;28;20492;-62
2024/02/12 08:11:03;;;;;;;1.58;1.13;;;8.50;87.40;;;;;;4976274;28;20053;-61
2024/02/12 08:13:29;;;;;;;2.85;1.20;;;8.50;87.40;;;;;;4978103;28;20046;-62
2024/02/12 08:15:54;;;;;;;2.47;1.20;;;8.50;87.40;;;;;;4984090;28;20038;-61
2024/02/12 08:18:21;;;;;;;1.98;1.40;;;8.50;87.40;;;;;;4979652;28;20041;-62
2024/02/12 08:20:46;;;;;;;1.95;1.30;;;8.50;87.50;;;;;;4982966;28;20038;-62
2024/02/12 08:23:12;;;;;;;2.38;1.40;;;8.60;87.50;;;;;;4980699;28;20046;-62
2024/02/12 08:25:38;;;;;;;1.95;1.30;;;8.60;87.60;;;;;;4977684;28;20027;-62
2024/02/12 08:28:04;;;;;;;2.28;1.40;;;8.60;87.60;;;;;;4974818;28;20038;-62
2024/02/12 08:30:31;;;;;;;2.08;1.52;;;8.60;87.60;;;;;;4985186;28;20046;-63
2024/02/12 08:32:57;;;;;;;3.90;2.00;;;8.70;87.70;;;;;;4986702;28;20535;-62
2024/02/12 08:35:23;;;;;;;3.88;1.98;;;8.70;87.80;;;;;;4979274;28;20034;-63
2024/02/12 08:37:49;;;;;;;4.95;2.83;;;8.70;87.60;;;;;;4979427;28;20043;-63
2024/02/12 08:40:16;;;;;;;5.70;2.33;;;8.70;87.60;;;;;;4975837;28;20042;-62
2024/02/12 08:42:44;;;;;;;3.13;1.65;;;8.80;87.60;;;;;;4976770;28;20483;-64
2024/02/12 08:45:11;;;;;;;2.03;1.60;;;8.80;87.60;;;;;;4977408;28;20042;-61
2024/02/12 08:47:37;;;;;;;2.30;1.30;;;8.80;87.70;;;;;;4976914;28;20106;-62
2024/02/12 08:50:03;;;;;;;1.80;1.33;;;8.80;87.70;;;;;;4981271;28;20035;-63
2024/02/12 08:52:31;;;;;;;1.60;1.20;;;8.90;87.80;;;;;;4975724;28;20073;-63
2024/02/12 08:54:59;;;;;;;1.42;1.30;;;8.90;88.60;;;;;;4977478;28;20561;-63
2024/02/12 08:57:25;;;;;;;1.55;1.17;;;8.90;87.80;;;;;;4980689;28;20467;-61
2024/02/12 08:59:52;;;;;;;2.53;1.25;;;9.00;87.80;;;;;;4976103;28;20043;-63
2024/02/12 09:02:18;;;;;;;2.60;1.17;;;9.00;87.80;;;;;;4981442;28;20627;-60
2024/02/12 09:04:44;;;;;;;2.65;1.20;;;9.00;87.70;;;;;;4983804;28;20035;-61
2024/02/12 09:07:11;;;;;;;2.28;1.05;;;9.10;87.70;;;;;;4984093;28;20081;-63
2024/02/12 09:09:37;;;;;;;1.50;1.23;;;9.00;87.50;;;;;;4981894;28;20553;-62
2024/02/12 09:12:03;;;;;;;1.70;1.30;;;9.20;87.60;;;;;;4978905;28;20034;-63
2024/02/12 09:14:28;;;;;;;3.40;1.30;;;9.20;87.50;;;;;;4975753;28;20065;-61
2024/02/12 09:16:54;;;;;;;2.08;1.58;;;9.20;87.40;;;;;;4980433;28;20096;-61
2024/02/12 09:19:19;;;;;;;3.50;1.50;;;9.30;87.00;;;;;;4978471;28;20093;-62
2024/02/12 09:21:45;;;;;;;2.95;1.40;;;9.30;86.80;;;;;;4983988;28;20042;-61
2024/02/12 09:24:12;;;;;;;1.52;1.23;;;9.30;86.70;;;;;;4985753;28;20034;-63
2024/02/12 09:26:37;;;;;;;2.33;1.40;;;9.40;86.90;;;;;;4986815;28;20039;-62
2024/02/12 09:29:03;;;;;;;2.75;1.35;;;9.40;86.90;;;;;;4982595;28;20092;-62
2024/02/12 09:31:33;;;;;;;3.05;1.40;;;9.40;86.70;;;;;;4983438;28;20043;-61
2024/02/12 09:34:02;;;;;;;1.95;1.20;;;9.40;86.50;;;;;;4984927;28;20112;-63
2024/02/12 09:36:29;;;;;;;3.42;1.20;;;9.50;86.60;;;;;;4980446;28;20081;-61
2024/02/12 09:38:54;;;;;;;1.60;1.38;;;9.50;86.30;;;;;;4981927;28;20046;-63
2024/02/12 09:41:26;;;;;;;1.60;1.48;;;9.60;86.40;;;;;;4988497;28;20417;-63
2024/02/12 09:43:54;;;;;;;2.53;1.45;;;9.60;86.00;;;;;;4987000;28;20038;-63
2024/02/12 09:46:21;;;;;;;1.40;1.30;;;9.60;85.90;;;;;;4990354;28;20027;-64
2024/02/12 09:48:50;;;;;;;1.60;1.50;;;9.70;85.90;;;;;;4988136;28;20046;-63
2024/02/12 09:51:19;;;;;;;1.90;1.50;;;9.80;85.50;;;;;;4982041;28;20030;-63
2024/02/12 09:53:47;;;;;;;2.15;1.48;;;9.80;85.60;;;;;;4984032;28;20533;-62
2024/02/12 09:56:14;;;;;;;1.75;1.50;;;9.80;85.50;;;;;;4987166;28;20059;-62
2024/02/12 09:58:40;;;;;;;1.63;1.30;;;9.90;85.40;;;;;;4985883;28;20042;-62
2024/02/12 10:01:05;;;;;;;3.38;1.30;;;9.90;85.30;;;;;;4986577;28;20038;-62
2024/02/12 10:03:32;;;;;;;4.93;2.80;;;10.00;85.20;;;;;;4978623;28;20031;-63
2024/02/12 10:05:58;;;;;;;11.32;6.03;;;10.00;85.10;;;;;;4987274;28;20126;-62
2024/02/12 10:08:25;;;;;;;2.10;1.77;;;10.00;84.90;;;;;;4986476;28;20039;-62
2024/02/12 10:10:52;;;;;;;2.83;1.60;;;10.10;84.70;;;;;;4982631;28;20035;-62
2024/02/12 10:13:19;;;;;;;2.15;1.50;;;10.10;84.50;;;;;;4985533;28;20122;-63
2024/02/12 10:15:46;;;;;;;2.50;1.60;;;10.10;84.50;;;;;;4986323;28;20507;-63
2024/02/12 10:18:15;;;;;;;3.05;1.70;;;10.20;84.50;;;;;;4982984;28;20038;-61
2024/02/12 10:20:41;;;;;;;2.45;1.63;;;10.20;84.30;;;;;;4981608;28;20059;-63
2024/02/12 10:23:10;;;;;;;2.50;1.70;;;10.20;84.10;;;;;;4982484;28;20030;-61
2024/02/12 10:25:45;;;;;;;1.50;1.40;;;10.20;83.90;;;;;;4982105;28;20145;-63
2024/02/12 10:28:14;;;;;;;2.38;1.90;;;10.20;83.40;;;;;;4980832;28;20110;-63
2024/02/12 10:30:42;;;;;;;2.17;1.52;;;10.30;83.70;;;;;;4980779;28;20383;-60
2024/02/12 10:33:09;;;;;;;1.75;1.50;;;10.30;83.60;;;;;;4983217;28;20169;-62
2024/02/12 10:35:39;;;;;;;2.40;1.73;;;10.30;83.30;;;;;;4980050;28;20103;-63
2024/02/12 10:38:08;;;;;;;2.30;1.30;;;10.30;83.00;;;;;;4980792;28;20414;-63
2024/02/12 10:40:55;;;;;;;1.40;1.30;;;10.30;83.10;;;;;;4982367;28;20495;-62
2024/02/12 10:43:23;;;;;;;3.17;1.45;;;10.30;82.50;;;;;;4987134;28;20490;-63
2024/02/12 10:45:49;;;;;;;1.77;1.50;;;10.40;82.70;;;;;;4988107;28;20066;-62
2024/02/12 10:48:18;;;;;;;2.20;1.23;;;10.40;82.60;;;;;;4986918;28;20418;-62
2024/02/12 10:50:47;;;;;;;1.75;1.30;;;10.40;82.30;;;;;;4981433;28;20031;-60
2024/02/12 10:53:17;;;;;;;1.52;1.40;;;10.40;82.00;;;;;;4981314;28;20491;-61
2024/02/12 10:55:44;;;;;;;1.63;1.15;;;10.40;80.90;;;;;;4984287;28;20034;-63
2024/02/12 10:58:12;;;;;;;1.92;1.27;;;10.40;80.80;;;;;;4984952;28;20061;-63
2024/02/12 11:00:40;;;;;;;1.63;1.15;;;10.50;82.20;;;;;;4985219;28;20041;-62
2024/02/12 11:03:06;;;;;;;1.45;1.00;;;10.50;81.50;;;;;;4990817;28;20061;-63
2024/02/12 11:05:38;;;;;;;2.03;1.02;;;10.50;81.30;;;;;;4988883;28;20186;-63
2024/02/12 11:08:10;;;;;;;1.50;1.10;;;10.50;80.70;;;;;;4982205;28;20030;-63
2024/02/12 11:10:38;;;;;;;1.13;0.93;;;10.50;80.70;;;;;;4980939;28;20039;-62
2024/02/12 11:13:05;;;;;;;0.82;0.82;;;10.60;80.60;;;;;;4983227;28;20394;-63
2024/02/12 11:15:31;;;;;;;1.50;1.10;;;10.60;80.50;;;;;;4986718;28;20051;-62
2024/02/12 11:17:57;;;;;;;1.35;1.00;;;10.60;80.50;;;;;;4985488;28;20041;-63
2024/02/12 11:20:25;;;;;;;1.38;1.00;;;10.60;80.30;;;;;;4977944;28;20035;-62
2024/02/12 11:22:52;;;;;;;0.98;0.90;;;10.60;80.20;;;;;;4989751;28;20054;-63
2024/02/12 11:25:18;;;;;;;3.10;1.13;;;10.60;80.30;;;;;;4985144;28;20509;-63
2024/02/12 11:27:58;;;;;;;1.70;1.15;;;10.60;80.00;;;;;;4989605;28;20039;-62
2024/02/12 11:30:24;;;;;;;2.78;1.60;;;10.60;79.60;;;;;;4981612;28;20486;-63
2024/02/12 11:32:50;;;;;;;1.55;1.30;;;10.60;80.50;;;;;;4981030;28;20112;-62
2024/02/12 11:35:18;;;;;;;1.33;1.20;;;10.60;80.80;;;;;;4983371;28;20494;-63
2024/02/12 11:37:56;;;;;;;1.30;1.17;;;10.60;80.30;;;;;;4983175;28;20046;-63
2024/02/12 11:40:22;;;;;;;1.45;1.05;;;10.60;80.30;;;;;;4987013;28;20403;-63
2024/02/12 11:42:51;;;;;;;1.00;0.90;;;10.50;80.20;;;;;;4986132;28;20034;-61
2024/02/12 11:45:25;;;;;;;0.98;0.93;;;10.50;79.30;;;;;;4977361;28;20155;-63
2024/02/12 11:47:51;;;;;;;1.30;1.20;;;10.40;79.10;;;;;;4986967;28;20088;-62
2024/02/12 11:50:24;;;;;;;2.80;1.10;;;10.30;79.70;;;;;;4982791;28;20046;-62
2024/02/12 11:52:54;;;;;;;2.00;1.27;;;10.30;80.30;;;;;;4985507;28;20043;-63
2024/02/12 11:55:20;;;;;;;0.80;0.80;;;10.10;80.60;;;;;;4984349;28;20023;-63
2024/02/12 11:57:46;;;;;;;1.45;0.90;;;10.00;81.00;;;;;;4984708;28;20038;-62
2024/02/12 12:00:19;;;;;;;0.93;0.80;;;9.90;80.80;;;;;;4981003;28;20085;-64
2024/02/12 12:02:46;;;;;;;2.40;0.70;;;10.00;81.30;;;;;;4985308;28;20129;-63
2024/02/12 12:05:18;;;;;;;0.70;0.70;;;9.90;81.30;;;;;;4984821;28;20050;-63
2024/02/12 12:07:45;;;;;;;1.05;0.75;;;9.80;81.30;;;;;;4978172;28;20050;-61
2024/02/12 12:10:11;;;;;;;3.40;2.13;;;9.80;81.50;;;;;;4980913;28;20038;-62
2024/02/12 12:12:40;;;;;;;1.67;1.20;;;9.80;81.90;;;;;;4981239;28;20165;-63
2024/02/12 12:15:07;;;;;;;1.75;1.02;;;9.80;82.20;;;;;;4987708;28;20034;-62
2024/02/12 12:17:33;;;;;;;1.38;1.00;;;9.80;82.50;;;;;;4980969;28;20565;-63
2024/02/12 12:20:00;;;;;;;1.33;1.23;;;9.70;82.90;;;;;;4981035;28;20125;-63
2024/02/12 12:22:29;;;;;;;1.75;1.35;;;9.80;83.30;;;;;;4981464;28;20490;-63
2024/02/12 12:24:55;;;;;;;2.70;1.30;;;9.80;83.50;;;;;;4982132;28;20042;-63
2024/02/12 12:27:27;;;;;;;1.92;1.50;;;9.80;83.70;;;;;;4978661;28;20027;-64
2024/02/12 12:29:54;;;;;;;2.35;1.10;;;9.80;83.90;;;;;;4980081;28;20403;-63
2024/02/12 12:32:20;;;;;;;2.03;0.98;;;9.80;83.80;;;;;;4980623;28;20078;-63
2024/02/12 12:34:46;;;;;;;1.95;0.80;;;9.80;83.80;;;;;;4978855;28;20529;-63
2024/02/12 12:37:13;;;;;;;4.38;1.13;;;9.80;83.60;;;;;;4977756;28;20034;-64
2024/02/12 12:39:40;;;;;;;1.83;1.10;;;9.80;83.40;;;;;;4979737;28;20043;-63
2024/02/12 12:42:07;;;;;;;1.50;1.00;;;9.70;83.60;;;;;;4980659;28;20092;-63
2024/02/12 12:44:34;;;;;;;1.77;0.80;;;9.70;83.80;;;;;;4983234;28;20034;-64
2024/02/12 12:47:01;;;;;;;0.82;0.60;;;9.60;84.00;;;;;;4983980;28;20116;-64
2024/02/12 12:49:27;;;;;;;0.65;0.60;;;9.60;84.20;;;;;;4981875;28;20035;-63
2024/02/12 12:51:52;;;;;;;0.82;0.68;;;9.60;84.20;;;;;;4982034;28;20613;-64
2024/02/12 12:54:20;;;;;;;1.17;0.82;;;9.60;84.50;;;;;;4977311;28;22040;-63
2024/02/12 12:56:48;;;;;;;1.02;0.90;;;9.50;84.80;;;;;;4984473;28;20045;-62
2024/02/12 12:59:14;;;;;;;1.25;1.08;;;9.50;84.70;;;;;;4983727;28;20110;-62
2024/02/12 13:01:40;;;;;;;1.23;1.13;;;9.50;85.10;;;;;;4986545;28;20520;-63
2024/02/12 13:04:09;;;;;;;2.55;1.30;;;9.60;85.40;;;;;;4986209;28;20042;-63
2024/02/12 13:06:38;;;;;;;2.80;1.60;;;9.60;85.70;;;;;;4987265;28;20031;-63
2024/02/12 13:09:09;;;;;;;2.47;1.42;;;9.60;85.80;;;;;;4985372;28;20035;-63